x

Port Colborne (45142) Wave Buoy

8:00pm - Wed 26th Nov 2014 All times are CST. -6 hours from GMT.

  • Sig Wave height 2.0ft
  • Peak Period 4s
  • Wind
    18mph, 22mph gusts
  • Sea Temp 44°f
  • Air Temp 34°f
  • Sea Pressure 1017.9mb
  • Port Colborne
  • Port Colborne

More Historic Weather Station data

Upgrade to MSW Pro to gain access to the past 30 days of data for over 8000 Wavebouys and Weather Stations around the globe.

Join Pro

Comparision Forecast

View Surf forecast
   
Wed 11/26 8:00pm 2ft 4s 18 22 mph 1017.9mb 44f 34f
7:00pm 1.6ft 3s 18 22 mph 1018mb 44f 34f
6:00pm 1.3ft 3s 18 22 mph 1017.8mb 44f 34f
5:00pm 1.3ft 3s 13 18 mph 1018.4mb 44f 35f
4:00pm 1.6ft 3s 16 18 mph 1018.4mb 44f 35f
3:00pm 1.6ft 3s 13 18 mph 1018.8mb 44f 35f
2:00pm 1.6ft 4s 16 18 mph 1019.1mb 44f 34f
1:00pm 2ft 4s 16 18 mph 1019.5mb 44f 34f
12:00pm 2ft 4s 16 18 mph 1020.4mb 44f 34f
11:00am 2ft 3s 16 20 mph 1020.7mb 44f 36f
10:00am 2ft 3s 18 22 mph 1021mb 44f 36f
9:00am 1.6ft 3s 16 18 mph 1021.1mb 44f 36f
8:00am 1.6ft 6s 16 20 mph 1021.6mb 44f 36f
7:00am 1.6ft 6s 13 18 mph 1023mb 44f 36f
6:00am 2ft 6s 13 18 mph 1021.9mb 44f 36f
5:00am 2.5ft 6s 11 16 mph 1022.2mb 44f 36f
4:00am 2.5ft 7s 9 13 mph 1022.8mb 44f 36f
3:00am 3ft 7s 7 11 mph 1022.8mb 44f 36f
2:00am 3ft 7s 7 9 mph 1023.1mb 44f 35f
1:00am 3.5ft 7s 11 16 mph 1023.2mb 45f 36f
12:00am 4.5ft 7s 13 20 mph 1022.7mb 45f 36f
Tue 11/25 11:00pm 5ft 7s 16 20 mph 1022.9mb 45f 36f
10:00pm  -   -  16
mph
1023.3mb - 37f
9:00pm 5.5ft 7s 16 20 mph 1023.1mb 45f 37f
8:00pm 7ft 8s 16 22 mph 1022.4mb 45f 37f
7:00pm 8ft 7s 20 27 mph 1021.4mb 45f 37f
6:00pm 9ft 7s 22 27 mph 1020.2mb 45f 38f
5:00pm 10.5ft 7s 27 34 mph 1018.8mb 45f 38f
4:00pm 10.5ft 8s 31 38 mph 1017.4mb 45f 39f
3:00pm 11.5ft 8s 31 43 mph 1016.5mb 45f 39f
2:00pm 11ft 8s 34 40 mph 1015.3mb 45f 39f
1:00pm 11.5ft 8s 31 38 mph 1014.7mb 45f 40f
12:00pm 11.5ft 7s 34 43 mph 1013.8mb 45f 41f
11:00am 11ft 7s 34 40 mph 1013.5mb 44f 41f
10:00am 11ft 8s 31 40 mph 1013.3mb 44f 41f
9:00am 10.5ft 8s 29 38 mph 1012.5mb 44f 41f
8:00am 11.5ft 8s 31 45 mph 1012mb 44f 41f
7:00am 10.5ft 7s 34 40 mph 1011mb 43f 41f
6:00am  -   -  29
mph
1010.5mb - 41f
5:00am 12ft 8s 29 36 mph 1009.8mb 43f 41f
4:00am 12.5ft 9s 34 43 mph 1009mb 43f 42f
3:00am 13ft 8s 31 43 mph 1008.6mb 44f 42f
2:00am 12.5ft 9s 38 47 mph 1007.9mb 44f 42f
1:00am 13ft 9s 31 38 mph 1007.3mb 44f 42f
12:00am 13ft 9s 36 43 mph 1006.1mb 43f 43f
Mon 11/24 11:00pm 13ft 9s 31 43 mph 1006.2mb 43f 43f
10:00pm 12ft 9s 34 45 mph 1004.7mb 42f 44f
9:00pm 12ft 8s 34 45 mph 1003.6mb 42f 45f
8:00pm 12ft 9s 36 45 mph 1002.5mb 43f 45f
7:00pm 12ft 8s 34 43 mph 1001.5mb 43f 45f
6:00pm 12ft 8s 34 43 mph 1000.5mb 43f 45f
5:00pm 11ft 7s 36 47 mph 998.4mb 43f 46f
4:00pm 9ft 6s 36 45 mph 996.2mb 43f 48f
3:00pm 7ft 7s 34 45 mph 994.1mb 43f 51f
2:00pm 7ft 6s 31 38 mph 991.8mb 43f 52f
1:00pm 5ft 6s 25 34 mph 991.5mb 43f 50f
12:00pm 4ft 5s 25 31 mph 989.3mb 43f 56f
11:00am 3.5ft 5s 22 27 mph 989.5mb 43f 56f
10:00am 3.5ft 6s 20 22 mph 990.4mb 43f 54f
9:00am 3.5ft 5s 20 22 mph 991.3mb 43f 54f
8:00am 3.5ft 6s 22 25 mph 991.4mb 43f 53f
7:00am 4ft 5s 20 22 mph 991.7mb 43f 53f
6:00am 4ft 4s 20 27 mph 991.5mb 43f 53f
5:00am 3.5ft 5s 22 27 mph 990.8mb 43f 53f
4:00am 3.5ft 4s 22 27 mph 990.6mb 43f 53f
3:00am 3.5ft 4s 20 25 mph 991.1mb 43f 51f
2:00am 4.5ft 5s 22 27 mph 992.1mb 43f 51f
1:00am 4ft 4s 27 36 mph 992.8mb 43f 51f
12:00am 2.5ft 4s 27 38 mph 994.3mb 43f 51f
Sun 11/23 11:00pm 2.5ft 4s 20 22 mph 998.7mb 43f 50f
10:00pm 2.5ft 3s 18 25 mph 1002.1mb 43f 52f
9:00pm 1.3ft 3s 18 22 mph 1003.1mb 43f 51f
8:00pm 2ft 4s 16 20 mph 1004.6mb 43f 51f
7:00pm 1.6ft 3s 16 25 mph 1005.9mb 44f 51f
6:00pm 1ft 4s 18 20 mph 1008mb 44f 51f
5:00pm 1.3ft 5s 7 9 mph 1009mb 44f 47f
4:00pm 1.3ft 5s 9 11 mph 1010mb 44f 49f
3:00pm 1.3ft 4s 11 13 mph 1011.5mb 44f 47f
2:00pm 1.6ft 4s 9
mph
1012.2mb 44f 46f
1:00pm 2ft 4s 7 9 mph 1013.5mb 43f 46f
12:00pm 2.5ft 5s 11 13 mph 1014.6mb 43f 46f
11:00am 2.5ft 5s 13 16 mph 1015.8mb 43f 46f
10:00am 2.5ft 5s 18 20 mph 1017.5mb 43f 45f
9:00am 2.5ft 5s 11 13 mph 1017.9mb 43f 45f
8:00am 2.5ft 5s 13 16 mph 1017.2mb 43f 46f
7:00am 2.5ft 6s 13 16 mph 1016.9mb 43f 47f
6:00am 3ft 6s 9 11 mph 1016.7mb 43f 47f
5:00am 3.5ft 5s 16 18 mph 1015.8mb 43f 47f
4:00am 3.5ft 6s 16 18 mph 1015.6mb 43f 48f